Time;durP1;ratioP1;P1;durP2;ratioP2;P2;SDS_P1;SDS_P2;PMS_P1;PMS_P2;Temp;Humidity;BMP_temperature;BMP_pressure;BME280_temperature;BME280_humidity;BME280_pressure;Samples;Min_cycle;Max_cycle;Signal;HPM_P1;HPM_P2
2023/03/08 00:02:13;;;;;;;36.58;15.30;;;;;;;8.78;nan;99669.97;4954900;28;20142;-84
2023/03/08 00:04:39;;;;;;;46.03;20.75;;;;;;;8.91;nan;99668.25;4952834;28;20074;-79
2023/03/08 00:07:06;;;;;;;25.48;11.05;;;;;;;8.80;nan;99677.84;4953104;28;20490;-82
2023/03/08 00:09:32;;;;;;;31.98;14.38;;;;;;;8.70;nan;99670.47;4952860;28;20051;-83
2023/03/08 00:11:59;;;;;;;40.58;16.88;;;;;;;8.86;nan;99670.69;4953251;28;20059;-82
2023/03/08 00:14:25;;;;;;;28.50;13.48;;;;;;;8.62;nan;99672.53;4933778;28;20051;-79
2023/03/08 00:16:52;;;;;;;36.30;15.50;;;;;;;9.61;nan;99680.41;4950467;28;20533;-82
2023/03/08 00:19:18;;;;;;;7.80;3.85;;;;;;;9.09;nan;99684.63;4950781;28;20055;-82
2023/03/08 00:21:45;;;;;;;26.95;10.07;;;;;;;10.78;nan;99674.59;4951060;28;20423;-81
2023/03/08 00:24:15;;;;;;;30.38;12.88;;;;;;;10.47;nan;99679.50;4951937;28;20847;-81
2023/03/08 00:26:42;;;;;;;31.77;14.50;;;;;;;10.68;nan;99672.81;4951194;28;20055;-80
2023/03/08 00:29:09;;;;;;;45.28;18.58;;;;;;;10.71;nan;99675.53;4952798;28;20063;-84
2023/03/08 00:31:35;;;;;;;31.98;13.15;;;;;;;9.81;nan;99665.53;4949982;28;20061;-80
2023/03/08 00:34:02;;;;;;;43.80;17.48;;;;;;;9.66;nan;99658.63;4954413;28;20059;-79
2023/03/08 00:36:29;;;;;;;26.60;12.02;;;;;;;10.10;nan;99661.16;4951430;28;20480;-79
2023/03/08 00:38:56;;;;;;;33.70;12.65;;;;;;;9.91;nan;99664.59;4949160;28;20078;-81
2023/03/08 00:41:22;;;;;;;22.52;12.13;;;;;;;10.16;nan;99662.25;4950891;28;20051;-80
2023/03/08 00:43:49;;;;;;;11.25;3.83;;;;;;;10.10;nan;99666.66;4949626;28;20094;-83
2023/03/08 00:46:16;;;;;;;63.40;26.45;;;;;;;10.32;nan;99667.13;4954184;28;20545;-80
2023/03/08 00:48:43;;;;;;;63.25;23.02;;;;;;;10.60;nan;99676.91;4951657;28;20062;-80
2023/03/08 00:51:13;;;;;;;55.03;20.88;;;;;;;10.41;nan;99676.44;4950656;28;20059;-84
2023/03/08 00:53:40;;;;;;;43.75;16.60;;;;;;;10.57;nan;99676.53;4932299;28;20059;-79
2023/03/08 00:56:07;;;;;;;23.45;8.90;;;;;;;10.32;nan;99672.63;4947523;28;20055;-79
2023/03/08 00:58:35;;;;;;;67.30;24.42;;;;;;;10.39;nan;99662.25;4947053;28;20502;-79
2023/03/08 01:01:03;;;;;;;20.70;8.68;;;;;;;9.99;nan;99671.56;4948203;28;20309;-82
2023/03/08 01:03:29;;;;;;;75.25;27.38;;;;;;;10.38;nan;99663.47;4946752;28;20407;-79
2023/03/08 01:05:57;;;;;;;69.80;25.13;;;;;;;10.37;nan;99650.81;4928962;29;20055;-80
2023/03/08 01:08:25;;;;;;;78.72;29.50;;;;;;;10.62;nan;99653.16;4950195;28;20115;-84
2023/03/08 01:10:58;;;;;;;76.78;28.73;;;;;;;10.71;nan;99658.13;4948929;28;20071;-78
2023/03/08 01:13:34;;;;;;;63.97;23.50;;;;;;;10.62;nan;99658.69;4947330;28;20141;-81
2023/03/08 01:16:01;;;;;;;37.08;13.93;;;;;;;10.19;nan;99655.09;4947180;28;20062;-79
2023/03/08 01:18:28;;;;;;;59.58;23.85;;;;;;;10.39;nan;99642.09;4946449;28;20490;-78
2023/03/08 01:21:03;;;;;;;5.07;3.35;;;;;;;10.10;nan;99647.31;4947946;28;20141;-82
2023/03/08 01:23:31;;;;;;;68.97;26.73;;;;;;;10.53;nan;99644.63;4946220;28;20058;-80
2023/03/08 01:26:02;;;;;;;67.55;24.63;;;;;;;10.68;nan;99637.63;4946549;28;20055;-80
2023/03/08 01:28:29;;;;;;;56.45;22.90;;;;;;;10.62;nan;99650.38;4949157;28;20153;-81
2023/03/08 01:31:09;;;;;;;72.35;29.08;;;;;;;10.65;nan;99637.69;4948662;28;20054;-79
2023/03/08 01:33:36;;;;;;;64.22;24.50;;;;;;;10.57;nan;99637.81;4946601;28;20059;-79
2023/03/08 01:36:08;;;;;;;74.25;27.75;;;;;;;10.77;nan;99629.56;4947098;28;20059;-78
2023/03/08 01:38:35;;;;;;;64.43;25.20;;;;;;;10.26;nan;99627.34;4947033;28;20486;-79
2023/03/08 01:41:04;;;;;;;77.28;24.83;;;;;;;9.38;nan;99622.38;4946694;28;20510;-78
2023/03/08 01:43:38;;;;;;;63.47;23.20;;;;;;;9.02;nan;99627.56;4952192;28;20047;-83
2023/03/08 01:46:09;;;;;;;72.35;27.75;;;;;;;9.11;nan;99624.31;4951620;28;20051;-79
2023/03/08 01:48:42;;;;;;;65.30;27.80;;;;;;;9.19;nan;99623.81;4951979;28;20059;-79
2023/03/08 01:51:11;;;;;;;65.35;24.30;;;;;;;9.48;nan;99622.22;4950789;28;20474;-80
2023/03/08 01:53:39;;;;;;;39.45;18.40;;;;;;;8.87;nan;99620.63;4951427;28;20055;-80
2023/03/08 01:56:11;;;;;;;66.72;24.67;;;;;;;9.13;nan;99617.16;4934332;29;20051;-80
2023/03/08 01:58:40;;;;;;;70.97;25.75;;;;;;;9.20;nan;99616.28;4953626;28;20062;-81
2023/03/08 02:01:07;;;;;;;71.47;24.48;;;;;;;9.21;nan;99604.84;4950329;28;20055;-80
2023/03/08 02:03:33;;;;;;;64.75;25.75;;;;;;;9.06;nan;99597.16;4949548;28;20059;-82
2023/03/08 02:06:01;;;;;;;76.88;27.70;;;;;;;9.07;nan;99596.75;4951578;28;20063;-82
2023/03/08 02:08:30;;;;;;;72.25;28.45;;;;;;;9.16;nan;99588.75;4933245;28;20055;-81
2023/03/08 02:10:58;;;;;;;56.35;22.85;;;;;;;9.05;nan;99590.84;4933959;28;20102;-82
2023/03/08 02:13:25;;;;;;;73.30;27.73;;;;;;;9.22;nan;99586.31;4952562;28;20054;-82
2023/03/08 02:15:55;;;;;;;66.85;27.00;;;;;;;9.16;nan;99572.19;4949824;28;20055;-79
2023/03/08 02:18:22;;;;;;;39.53;15.27;;;;;;;9.01;nan;99573.56;4951421;28;20052;-80
2023/03/08 02:20:49;;;;;;;52.47;19.02;;;;;;;9.00;nan;99563.72;4949019;28;20066;-82
2023/03/08 02:23:22;;;;;;;78.63;29.05;;;;;;;9.22;nan;99565.00;4931958;29;20114;-81
2023/03/08 02:25:50;;;;;;;48.05;19.15;;;;;;;9.12;nan;99560.44;4933531;28;20063;-81
2023/03/08 02:28:18;;;;;;;68.72;27.40;;;;;;;9.28;nan;99563.34;4950189;28;20051;-80
2023/03/08 02:30:45;;;;;;;71.93;27.27;;;;;;;9.31;nan;99553.44;4950407;28;20471;-84
2023/03/08 02:33:11;;;;;;;66.65;24.75;;;;;;;9.26;nan;99545.63;4950854;28;20205;-82
2023/03/08 02:35:41;;;;;;;72.15;26.20;;;;;;;9.34;nan;99542.34;4949965;28;20051;-77
2023/03/08 02:38:12;;;;;;;74.70;28.45;;;;;;;9.47;nan;99554.38;4949513;28;20051;-79
2023/03/08 02:40:39;;;;;;;62.95;24.92;;;;;;;9.43;nan;99544.59;4949653;28;20494;-79
2023/03/08 02:43:06;;;;;;;64.05;25.25;;;;;;;9.46;nan;99538.25;4949973;28;20054;-81
2023/03/08 02:45:33;;;;;;;66.13;26.35;;;;;;;9.43;nan;99548.16;4949738;28;20051;-83
2023/03/08 02:48:04;;;;;;;56.42;21.33;;;;;;;9.07;nan;99549.03;4950408;28;20059;-79
2023/03/08 02:50:31;;;;;;;56.28;23.92;;;;;;;9.22;nan;99547.66;4945103;28;20121;-78
2023/03/08 02:52:58;;;;;;;58.00;24.17;;;;;;;9.09;nan;99544.69;4930095;28;20509;-82
2023/03/08 02:55:25;;;;;;;39.80;15.65;;;;;;;9.08;nan;99542.34;4951713;28;20075;-81
2023/03/08 02:57:52;;;;;;;63.53;26.00;;;;;;;9.30;nan;99544.38;4959389;28;20058;-79
2023/03/08 03:00:19;;;;;;;22.73;10.45;;;;;;;9.04;nan;99547.91;4959801;28;20051;-81
2023/03/08 03:03:08;;;;;;;57.40;24.15;;;;;;;9.17;nan;99534.31;4961292;28;20684;-79
2023/03/08 03:05:40;;;;;;;64.90;23.70;;;;;;;9.16;nan;99539.09;4955101;28;20051;-79
2023/03/08 03:08:06;;;;;;;54.67;22.52;;;;;;;8.99;nan;99534.59;4958820;28;20051;-80
2023/03/08 03:10:35;;;;;;;53.22;22.92;;;;;;;8.96;nan;99532.66;4956553;28;20053;-79
2023/03/08 03:13:02;;;;;;;38.25;16.38;;;;;;;9.07;nan;99532.50;4954407;28;20055;-80
2023/03/08 03:15:29;;;;;;;21.17;7.53;;;;;;;9.06;nan;99531.72;4958495;28;20066;-79
2023/03/08 03:17:56;;;;;;;63.30;23.90;;;;;;;9.13;nan;99536.34;4950618;29;20051;-79
2023/03/08 03:20:23;;;;;;;37.58;16.77;;;;;;;8.93;nan;99530.72;4954325;28;20051;-80
2023/03/08 03:22:50;;;;;;;44.13;18.60;;;;;;;8.83;nan;99514.31;4961492;28;20050;-79
2023/03/08 03:25:17;;;;;;;63.00;21.25;;;;;;;9.00;nan;99525.09;4962154;28;20461;-79
2023/03/08 03:27:43;;;;;;;55.03;21.27;;;;;;;8.94;nan;99526.75;4959192;28;20731;-81
2023/03/08 03:30:10;;;;;;;53.58;21.98;;;;;;;8.96;nan;99529.09;4958306;28;20477;-78
2023/03/08 03:32:37;;;;;;;57.00;22.55;;;;;;;9.10;nan;99529.69;4953669;28;20465;-79
2023/03/08 03:35:04;;;;;;;36.08;15.25;;;;;;;9.10;nan;99526.94;4959441;28;20505;-80
2023/03/08 03:37:33;;;;;;;56.90;23.33;;;;;;;9.21;nan;99515.75;4960031;28;20055;-79
2023/03/08 03:40:00;;;;;;;70.85;24.55;;;;;;;9.29;nan;99517.22;4947116;28;20111;-79
2023/03/08 03:42:26;;;;;;;67.32;24.77;;;;;;;9.28;nan;99515.66;4960761;28;20043;-80
2023/03/08 03:44:53;;;;;;;60.10;21.42;;;;;;;9.10;nan;99518.66;4967085;28;20720;-79
2023/03/08 03:47:19;;;;;;;58.03;21.45;;;;;;;9.19;nan;99521.69;4957701;28;20051;-77
2023/03/08 03:49:46;;;;;;;61.60;21.38;;;;;;;9.17;nan;99518.56;4962212;28;20066;-79
2023/03/08 03:52:12;;;;;;;62.20;24.15;;;;;;;9.10;nan;99517.88;4952032;28;20067;-79
2023/03/08 03:54:39;;;;;;;71.05;22.98;;;;;;;9.13;nan;99511.53;4961682;28;20069;-78
2023/03/08 03:57:06;;;;;;;69.88;25.20;;;;;;;9.17;nan;99506.72;4944264;29;20502;-78
2023/03/08 03:59:33;;;;;;;64.95;23.75;;;;;;;9.15;nan;99498.09;4963038;28;20055;-78
2023/03/08 04:01:59;;;;;;;62.35;21.45;;;;;;;9.29;nan;99495.13;4942877;28;20051;-81
2023/03/08 04:04:26;;;;;;;50.35;19.13;;;;;;;9.22;nan;99507.03;4955950;28;20055;-81
2023/03/08 04:06:53;;;;;;;63.65;23.63;;;;;;;9.23;nan;99489.31;4955128;28;20502;-78
2023/03/08 04:09:19;;;;;;;34.03;15.23;;;;;;;8.97;nan;99492.81;4959082;28;20454;-80
2023/03/08 04:11:46;;;;;;;53.00;20.58;;;;;;;9.15;nan;99495.34;4962632;28;20047;-83
2023/03/08 04:14:12;;;;;;;59.15;21.85;;;;;;;9.16;nan;99492.16;4956760;28;20047;-79
2023/03/08 04:16:39;;;;;;;50.88;21.27;;;;;;;8.94;nan;99468.06;4953176;28;20494;-79
2023/03/08 04:19:10;;;;;;;54.60;20.05;;;;;;;8.80;nan;99460.75;4957422;28;20050;-79
2023/03/08 04:21:37;;;;;;;55.03;21.52;;;;;;;8.87;nan;99463.41;4957604;28;20047;-81
2023/03/08 04:24:04;;;;;;;59.85;25.27;;;;;;;8.98;nan;99460.50;4941072;29;20059;-81
2023/03/08 04:26:31;;;;;;;65.90;25.45;;;;;;;8.97;nan;99465.25;4961082;28;20051;-78
2023/03/08 04:28:57;;;;;;;51.30;19.85;;;;;;;8.88;nan;99456.69;4955319;28;20051;-80
2023/03/08 04:31:27;;;;;;;60.50;21.70;;;;;;;9.01;nan;99460.44;4955929;28;20675;-82
2023/03/08 04:33:54;;;;;;;51.38;19.77;;;;;;;8.94;nan;99454.28;4954930;28;20058;-80
2023/03/08 04:36:21;;;;;;;63.70;23.15;;;;;;;8.88;nan;99455.94;4954469;28;20066;-82
2023/03/08 04:38:49;;;;;;;51.42;21.73;;;;;;;8.88;nan;99450.41;4955673;28;20059;-78
2023/03/08 04:41:16;;;;;;;52.58;21.15;;;;;;;8.91;nan;99444.84;4955868;28;20055;-79
2023/03/08 04:43:52;;;;;;;52.22;19.55;;;;;;;8.95;nan;99447.56;4953401;28;20121;-79
2023/03/08 04:46:19;;;;;;;;;;;;;;;8.72;nan;99440.00;4950746;28;20098;-77
2023/03/08 04:48:46;;;;;;;51.72;19.45;;;;;;;8.54;nan;99433.16;4953460;28;20382;-80
2023/03/08 04:51:15;;;;;;;39.33;15.90;;;;;;;8.28;nan;99429.16;4952828;28;20055;-79
2023/03/08 04:53:44;;;;;;;50.75;20.13;;;;;;;8.24;nan;99417.41;4953213;28;20059;-79
2023/03/08 04:56:13;;;;;;;36.70;14.27;;;;;;;8.11;nan;99415.56;4951895;28;20498;-78
2023/03/08 04:58:41;;;;;;;53.65;20.65;;;;;;;8.31;nan;99411.81;4953538;28;20051;-81
2023/03/08 05:01:18;;;;;;;56.97;20.48;;;;;;;8.41;nan;99401.84;4953776;28;20054;-81
2023/03/08 05:03:46;;;;;;;57.38;16.50;;;;;;;8.31;nan;99395.28;4952554;28;20176;-78
2023/03/08 05:06:13;;;;;;;48.28;18.38;;;;;;;8.32;nan;99396.03;4938153;28;20515;-82
2023/03/08 05:08:40;;;;;;;56.30;20.30;;;;;;;8.47;nan;99392.69;4952521;28;20075;-80
2023/03/08 05:11:07;;;;;;;60.85;21.30;;;;;;;8.55;nan;99382.34;4952931;28;20042;-80
2023/03/08 05:13:37;;;;;;;58.72;22.30;;;;;;;8.60;nan;99395.69;4955388;28;20051;-83
2023/03/08 05:16:05;;;;;;;56.33;21.20;;;;;;;8.65;nan;99386.94;4951690;28;20753;-80
2023/03/08 05:18:32;;;;;;;53.03;20.70;;;;;;;8.57;nan;99391.75;4953761;28;20046;-79
2023/03/08 05:21:05;;;;;;;58.20;19.75;;;;;;;8.63;nan;99394.81;4953474;28;20105;-81
2023/03/08 05:23:32;;;;;;;66.10;22.60;;;;;;;8.70;nan;99384.47;4952078;28;20039;-79
2023/03/08 05:26:01;;;;;;;68.60;24.30;;;;;;;8.65;nan;99379.44;4953779;28;20059;-80
2023/03/08 05:28:30;;;;;;;50.53;20.38;;;;;;;8.68;nan;99380.59;4951501;28;20055;-78
2023/03/08 05:31:01;;;;;;;63.95;22.63;;;;;;;8.67;nan;99379.78;4935203;29;20052;-79
2023/03/08 05:33:27;;;;;;;51.92;20.60;;;;;;;8.68;nan;99381.38;4951852;28;20494;-80
2023/03/08 05:35:54;;;;;;;46.45;18.05;;;;;;;8.59;nan;99372.84;4953355;28;20386;-80
2023/03/08 05:38:22;;;;;;;54.28;20.27;;;;;;;8.70;nan;99369.91;4950714;28;20438;-79
2023/03/08 05:40:49;;;;;;;46.97;18.23;;;;;;;8.42;nan;99362.84;4951547;28;20173;-81
2023/03/08 05:43:17;;;;;;;42.03;17.42;;;;;;;7.98;nan;99357.50;4944750;28;20054;-79
2023/03/08 05:45:56;;;;;;;50.67;18.23;;;;;;;8.01;nan;99348.41;4950966;28;20047;-79
2023/03/08 05:48:24;;;;;;;51.40;19.02;;;;;;;8.01;nan;99348.41;4956200;28;20054;-79
2023/03/08 05:50:51;;;;;;;34.80;13.50;;;;;;;7.85;nan;99337.19;4960466;28;20043;-80
2023/03/08 05:53:19;;;;;;;55.70;19.67;;;;;;;8.90;nan;99338.47;4958387;28;20070;-79
2023/03/08 05:55:45;;;;;;;58.50;20.05;;;;;;;8.02;nan;99327.91;4958143;28;20055;-79
2023/03/08 05:58:12;;;;;;;48.47;17.85;;;;;;;8.11;nan;99324.66;4961157;28;20051;-79
2023/03/08 06:00:39;;;;;;;53.35;18.42;;;;;;;8.12;nan;99320.69;4957105;28;20758;-80
2023/03/08 06:03:05;;;;;;;33.70;14.52;;;;;;;7.85;nan;99321.44;4951776;28;20121;-80
2023/03/08 06:05:33;;;;;;;41.45;16.42;;;;;;;7.81;nan;99320.72;4961070;28;20472;-81
2023/03/08 06:07:59;;;;;;;57.35;19.17;;;;;;;7.90;nan;99315.47;4960605;28;20051;-81
2023/03/08 06:10:26;;;;;;;56.53;19.70;;;;;;;7.82;nan;99302.22;4958144;28;20683;-79
2023/03/08 06:12:53;;;;;;;54.17;19.88;;;;;;;7.69;nan;99303.94;4965712;28;20114;-79
2023/03/08 06:15:19;;;;;;;46.80;19.83;;;;;;;7.88;nan;99300.56;4960965;28;20108;-80
2023/03/08 06:17:46;;;;;;;51.40;19.88;;;;;;;7.82;nan;99300.25;4955878;28;20055;-80
2023/03/08 06:20:15;;;;;;;53.08;19.33;;;;;;;7.84;nan;99288.81;4959593;28;20055;-79
2023/03/08 06:22:42;;;;;;;48.45;20.25;;;;;;;7.83;nan;99293.53;4955831;28;20055;-79
2023/03/08 06:25:08;;;;;;;42.67;16.70;;;;;;;7.74;nan;99284.22;4951493;28;20059;-81
2023/03/08 06:27:35;;;;;;;42.42;15.75;;;;;;;7.68;nan;99283.13;4947246;28;20109;-79
2023/03/08 06:30:02;;;;;;;31.90;12.07;;;;;;;7.62;nan;99284.75;4960643;28;20066;-79
2023/03/08 06:32:28;;;;;;;42.85;14.23;;;;;;;7.64;nan;99279.63;4954665;28;20055;-82
2023/03/08 06:34:55;;;;;;;43.63;13.65;;;;;;;7.60;nan;99276.16;4955735;29;20055;-80
2023/03/08 06:37:21;;;;;;;45.65;15.32;;;;;;;7.58;nan;99270.25;4954396;29;20154;-79
2023/03/08 06:39:48;;;;;;;35.58;10.52;;;;;;;7.73;nan;99266.16;4967512;28;20051;-79
2023/03/08 06:42:14;;;;;;;36.72;11.98;;;;;;;8.16;nan;99258.09;4966226;28;20063;-81
2023/03/08 06:44:41;;;;;;;39.03;11.45;;;;;;;7.76;nan;99262.56;4966729;28;20054;-81
2023/03/08 06:47:07;;;;;;;38.80;11.23;;;;;;;7.47;nan;99256.66;4954714;28;20059;-79
2023/03/08 06:49:34;;;;;;;34.78;12.98;;;;;;;7.62;nan;99263.53;4957276;28;20047;-79
2023/03/08 06:52:01;;;;;;;36.90;11.27;;;;;;;7.51;nan;99256.59;4959288;28;20397;-79
2023/03/08 06:54:28;;;;;;;29.58;10.77;;;;;;;7.40;nan;99253.19;4958765;28;20059;-78
2023/03/08 06:56:54;;;;;;;41.95;13.60;;;;;;;7.24;nan;99244.72;4948910;28;20524;-81
2023/03/08 06:59:21;;;;;;;36.65;11.75;;;;;;;7.83;nan;99248.69;4955419;28;20047;-83
2023/03/08 07:01:47;;;;;;;29.92;8.88;;;;;;;6.94;nan;99247.38;4954928;28;20128;-79
2023/03/08 07:04:14;;;;;;;33.25;8.88;;;;;;;7.04;nan;99244.53;4931556;29;20473;-80
2023/03/08 07:06:40;;;;;;;26.35;8.43;;;;;;;6.96;nan;99264.28;4955556;28;20059;-79
2023/03/08 07:09:07;;;;;;;25.55;7.40;;;;;;;7.06;nan;99253.16;4952702;29;20115;-78
2023/03/08 07:11:33;;;;;;;22.98;7.05;;;;;;;7.03;nan;99254.00;4951531;29;20109;-79
2023/03/08 07:14:00;;;;;;;15.43;5.38;;;;;;;6.90;nan;99250.19;4952108;28;20167;-78
2023/03/08 07:16:27;;;;;;;27.33;7.88;;;;;;;7.06;nan;99244.13;4948441;29;20044;-79
2023/03/08 07:18:55;;;;;;;25.65;7.78;;;;;;;7.00;nan;99248.50;4950329;29;20051;-81
2023/03/08 07:21:23;;;;;;;28.13;7.25;;;;;;;6.79;nan;99254.22;4944592;29;20148;-79
2023/03/08 07:23:51;;;;;;;32.45;8.95;;;;;;;6.91;nan;99248.19;4951819;29;20109;-79
2023/03/08 07:26:18;;;;;;;29.85;10.02;;;;;;;6.84;nan;99253.78;4951940;29;20047;-79
2023/03/08 07:28:48;;;;;;;28.45;8.45;;;;;;;6.95;nan;99238.72;4952099;28;20110;-79
2023/03/08 07:31:16;;;;;;;32.75;9.43;;;;;;;6.83;nan;99244.75;4951183;28;20058;-81
2023/03/08 07:33:42;;;;;;;27.13;7.78;;;;;;;6.99;nan;99224.97;4951968;29;20066;-77
2023/03/08 07:36:09;;;;;;;25.98;7.18;;;;;;;6.99;nan;99233.97;4952464;28;20107;-79
2023/03/08 07:38:35;;;;;;;21.33;7.05;;;;;;;6.93;nan;99234.84;4952258;28;20054;-78
2023/03/08 07:41:02;;;;;;;24.17;8.02;;;;;;;7.00;nan;99232.00;4952596;28;20047;-81
2023/03/08 07:43:29;;;;;;;29.50;8.77;;;;;;;6.89;nan;99231.34;4957272;28;20054;-78
2023/03/08 07:45:58;;;;;;;23.05;7.45;;;;;;;17.13;nan;99280.91;4955613;28;20047;-79
2023/03/08 07:48:25;;;;;;;17.73;6.55;;;;;;;11.77;nan;99244.66;4966465;28;20090;-83
2023/03/08 07:50:51;;;;;;;24.27;6.10;;;;;;;11.44;nan;99238.44;4946439;29;20127;-80
2023/03/08 07:53:18;;;;;;;17.23;6.18;;;;;;;10.63;nan;99231.53;4968774;28;20051;-82
2023/03/08 07:55:44;;;;;;;14.85;5.00;;;;;;;10.18;nan;99234.19;4986464;28;20054;-83
2023/03/08 07:58:11;;;;;;;19.40;6.78;;;;;;;9.71;nan;99221.78;4980319;28;20564;-83
2023/03/08 08:00:37;;;;;;;18.25;6.15;;;;;;;17.92;nan;99307.97;4979563;28;20121;-79
2023/03/08 08:03:04;;;;;;;21.08;6.63;;;;;;;13.02;nan;99269.63;4963384;28;20050;-80
2023/03/08 08:05:30;;;;;;;21.35;6.90;;;;;;;10.68;nan;99246.81;4962348;28;20051;-80
2023/03/08 08:07:57;;;;;;;22.75;6.10;;;;;;;9.71;nan;99229.28;4963770;28;20130;-80
2023/03/08 08:10:24;;;;;;;17.40;6.47;;;;;;;8.73;nan;99218.19;4955689;28;20055;-81
2023/03/08 08:12:50;;;;;;;18.98;6.88;;;;;;;8.96;nan;99225.66;4964235;28;20588;-78
2023/03/08 08:15:18;;;;;;;20.40;7.18;;;;;;;8.78;nan;99223.22;4954780;28;20047;-79
2023/03/08 08:17:44;;;;;;;13.43;4.70;;;;;;;8.60;nan;99214.47;4956657;28;20059;-79
2023/03/08 08:20:11;;;;;;;17.88;5.10;;;;;;;8.70;nan;99219.03;4938211;28;20059;-79
2023/03/08 08:22:37;;;;;;;10.70;3.47;;;;;;;8.83;nan;99211.72;4954173;28;20058;-81
2023/03/08 08:25:05;;;;;;;7.60;2.67;;;;;;;8.76;nan;99213.81;4949342;28;20510;-81
2023/03/08 08:27:33;;;;;;;11.85;3.92;;;;;;;8.48;nan;99195.81;4937904;28;20047;-79
2023/03/08 08:29:59;;;;;;;11.30;4.07;;;;;;;8.22;nan;99188.34;4954414;28;20043;-79
2023/03/08 08:32:26;;;;;;;17.35;4.47;;;;;;;8.31;nan;99185.06;4956332;28;20051;-78
2023/03/08 08:34:52;;;;;;;18.45;3.90;;;;;;;8.24;nan;99182.44;4941352;28;20062;-78
2023/03/08 08:37:19;;;;;;;19.33;5.82;;;;;;;8.27;nan;99174.09;4953249;28;20557;-80
2023/03/08 08:39:46;;;;;;;14.02;4.57;;;;;;;8.42;nan;99175.44;4962130;28;20051;-78
2023/03/08 08:42:12;;;;;;;14.45;5.00;;;;;;;8.14;nan;99164.06;4956455;28;20062;-78
2023/03/08 08:44:39;;;;;;;15.25;5.10;;;;;;;8.33;nan;99171.66;4952228;28;20615;-78
2023/03/08 08:47:05;;;;;;;18.02;5.15;;;;;;;7.71;nan;99161.97;4950929;28;20055;-77
2023/03/08 08:49:32;;;;;;;17.10;5.20;;;;;;;8.08;nan;99155.50;4952271;28;20043;-79
2023/03/08 08:51:59;;;;;;;13.30;4.80;;;;;;;8.13;nan;99155.00;4955676;28;20062;-79
2023/03/08 08:54:25;;;;;;;16.88;5.32;;;;;;;8.08;nan;99149.97;4956210;28;20422;-78
2023/03/08 08:56:52;;;;;;;18.17;5.75;;;;;;;8.29;nan;99149.66;4952542;28;20822;-78
2023/03/08 08:59:18;;;;;;;16.85;5.82;;;;;;;8.18;nan;99129.75;4955911;28;20051;-80
2023/03/08 09:01:45;;;;;;;14.85;5.43;;;;;;;8.41;nan;99132.53;4959228;28;20113;-78
2023/03/08 09:04:13;;;;;;;19.40;5.60;;;;;;;7.98;nan;99134.41;4943515;28;20054;-79
2023/03/08 09:06:40;;;;;;;16.30;5.60;;;;;;;7.94;nan;99139.94;4945490;28;20509;-78
2023/03/08 09:09:07;;;;;;;15.77;6.03;;;;;;;8.03;nan;99137.47;4955956;28;20050;-78
2023/03/08 09:11:34;;;;;;;16.55;5.95;;;;;;;8.23;nan;99137.56;4953253;28;20055;-79
2023/03/08 09:14:10;;;;;;;16.63;6.18;;;;;;;8.42;nan;99128.56;4954891;28;20058;-74
2023/03/08 09:16:37;;;;;;;16.23;4.68;;;;;;;8.28;nan;99133.53;4951563;28;20105;-78
2023/03/08 09:19:05;;;;;;;14.85;5.72;;;;;;;8.32;nan;99121.28;4937597;28;20047;-78
2023/03/08 09:21:32;;;;;;;12.60;3.85;;;;;;;8.28;nan;99115.03;4960506;28;20050;-77
2023/03/08 09:24:02;;;;;;;11.85;4.47;;;;;;;15.27;nan;99167.78;4959934;28;20082;-79
2023/03/08 09:26:30;;;;;;;9.27;3.38;;;;;;;10.71;nan;99121.50;4959283;28;20126;-77
2023/03/08 09:29:03;;;;;;;16.15;5.03;;;;;;;10.14;nan;99116.66;4970615;28;20065;-77
2023/03/08 09:31:31;;;;;;;10.63;3.65;;;;;;;10.12;nan;99103.25;4966967;29;20035;-78
2023/03/08 09:33:58;;;;;;;13.27;5.15;;;;;;;9.86;nan;99092.44;4976766;28;20066;-83
2023/03/08 09:36:27;;;;;;;10.25;4.47;;;;;;;10.34;nan;99096.00;4975041;28;20043;-80
2023/03/08 09:38:54;;;;;;;12.93;4.38;;;;;;;9.94;nan;99091.06;4980320;28;20094;-81
2023/03/08 09:41:47;;;;;;;11.43;5.38;;;;;;;9.91;nan;99091.91;4975244;28;20043;-78
2023/03/08 09:44:42;;;;;;;16.63;4.45;;;;;;;9.97;nan;99101.25;4957192;28;20054;-77
2023/03/08 09:47:27;;;;;;;8.93;3.40;;;;;;;9.99;nan;99094.06;4954179;28;20058;-83
2023/03/08 09:50:11;;;;;;;11.53;4.47;;;;;;;10.15;nan;99085.03;4952378;28;20391;-77
2023/03/08 09:52:49;;;;;;;18.00;5.43;;;;;;;10.03;nan;99080.94;4953195;28;20310;-79
2023/03/08 09:55:31;;;;;;;13.48;5.10;;;;;;;8.55;nan;99065.34;4956447;28;20138;-80
2023/03/08 09:58:13;;;;;;;12.35;5.25;;;;;;;9.02;nan;99075.81;4947291;28;20499;-79
2023/03/08 10:00:40;;;;;;;15.48;5.93;;;;;;;9.32;nan;99072.78;4946406;28;20105;-81
2023/03/08 10:03:33;;;;;;;20.25;6.47;;;;;;;8.72;nan;99067.75;4952552;28;20066;-78
2023/03/08 10:06:07;;;;;;;14.60;5.20;;;;;;;8.90;nan;99057.13;4952776;28;20051;-78
2023/03/08 10:08:44;;;;;;;17.48;7.10;;;;;;;8.98;nan;99058.53;4953036;28;20055;-77
2023/03/08 10:11:49;;;;;;;23.90;8.13;;;;;;;9.16;nan;99074.72;4949049;28;20059;-81
2023/03/08 10:14:25;;;;;;;22.65;9.27;;;;;;;9.47;nan;99073.22;4952008;28;20518;-77
2023/03/08 10:16:59;;;;;;;17.75;7.38;;;;;;;9.73;nan;99069.47;4949953;28;20065;-74
2023/03/08 10:19:31;;;;;;;20.90;7.60;;;;;;;9.84;nan;99062.50;4956436;28;20105;-77
2023/03/08 10:22:07;;;;;;;19.10;6.68;;;;;;;9.60;nan;99058.34;4954405;28;20055;-77
2023/03/08 10:24:47;;;;;;;22.75;8.75;;;;;;;9.59;nan;99048.47;4953065;28;20490;-80
2023/03/08 10:27:19;;;;;;;26.55;9.02;;;;;;;9.87;nan;99050.59;4956414;28;20055;-77
2023/03/08 10:29:54;;;;;;;20.73;7.43;;;;;;;18.31;nan;99115.47;4952716;28;20517;-81
2023/03/08 10:32:21;;;;;;;11.52;5.00;;;;;;;12.28;nan;99047.41;4947659;28;20055;-75
2023/03/08 10:34:48;;;;;;;26.00;8.95;;;;;;;11.32;nan;99023.25;4954613;28;20062;-80
2023/03/08 10:37:16;;;;;;;18.15;5.95;;;;;;;10.66;nan;99011.41;4947809;28;20074;-81
2023/03/08 10:39:53;;;;;;;22.92;7.88;;;;;;;10.74;nan;99008.00;4951994;28;20051;-79
2023/03/08 10:42:22;;;;;;;15.15;5.55;;;;;;;10.39;nan;99004.22;4946234;28;20498;-79
2023/03/08 10:44:56;;;;;;;30.42;12.07;;;;;;;11.19;nan;98988.44;4951682;28;20671;-81
2023/03/08 10:47:31;;;;;;;25.10;8.27;;;;;;;14.32;nan;99047.91;4944335;28;20055;-78
2023/03/08 10:50:15;;;;;;;26.63;9.50;;;;;;;7.45;nan;99016.88;4951679;28;20510;-78
2023/03/08 10:52:43;;;;;;;31.58;11.18;;;;;;;7.16;nan;99014.97;4951324;28;20063;-79
2023/03/08 10:55:13;;;;;;;17.60;6.22;;;;;;;7.34;nan;99015.47;4953100;28;20063;-80
2023/03/08 10:57:47;;;;;;;29.40;10.20;;;;;;;6.56;nan;99013.03;4953519;28;20039;-79
2023/03/08 11:00:36;;;;;;;24.15;8.18;;;;;;;7.03;nan;99013.97;4952536;28;20126;-79
2023/03/08 11:03:10;;;;;;;27.83;9.52;;;;;;;6.81;nan;99015.44;4953079;28;20055;-80
2023/03/08 11:05:37;;;;;;;30.80;12.88;;;;;;;7.02;nan;99017.91;4953126;28;20417;-80
2023/03/08 11:08:13;;;;;;;35.55;12.82;;;;;;;7.22;nan;99016.03;4954791;29;20078;-81
2023/03/08 11:10:40;;;;;;;32.20;11.30;;;;;;;6.94;nan;99021.94;4964870;29;20107;-83
2023/03/08 11:13:30;;;;;;;14.40;6.25;;;;;;;6.73;nan;99023.00;4971557;28;20094;-82
2023/03/08 11:16:34;;;;;;;17.70;6.65;;;;;;;6.52;nan;99019.75;4964309;28;20137;-85
2023/03/08 11:19:07;;;;;;;17.25;6.00;;;;;;;6.37;nan;99026.56;4968216;28;20082;-85
2023/03/08 11:22:05;;;;;;;18.27;6.72;;;;;;;6.74;nan;99021.03;4969453;28;20078;-85
2023/03/08 11:24:50;;;;;;;16.23;5.60;;;;;;;6.69;nan;99005.00;4942823;28;20050;-79
2023/03/08 11:27:26;;;;;;;13.73;4.87;;;;;;;6.34;nan;99008.19;4948993;28;20058;-81
2023/03/08 11:30:04;;;;;;;15.90;5.75;;;;;;;6.34;nan;99000.72;4956478;28;20058;-82
2023/03/08 11:32:53;;;;;;;20.38;6.38;;;;;;;6.71;nan;98991.63;4956092;28;20515;-80
2023/03/08 11:35:34;;;;;;;16.40;5.85;;;;;;;6.83;nan;98989.13;4948311;28;20352;-82
2023/03/08 11:38:19;;;;;;;13.88;4.93;;;;;;;7.16;nan;98990.22;4951727;28;20062;-80
2023/03/08 11:40:55;;;;;;;12.20;4.45;;;;;;;7.01;nan;98981.38;4952247;28;20140;-81
2023/03/08 11:43:43;;;;;;;13.98;5.38;;;;;;;15.61;nan;99020.91;4949255;28;20043;-82
2023/03/08 11:46:55;;;;;;;8.82;3.78;;;;;;;7.23;nan;99034.13;4951076;28;20054;-81
2023/03/08 11:49:24;;;;;;;12.75;5.18;;;;;;;10.21;nan;99028.03;4880551;29;20515;-82
2023/03/08 11:52:03;;;;;;;15.23;5.03;;;;;;;8.52;nan;99014.59;4874817;29;20049;-84
2023/03/08 11:54:32;;;;;;;12.90;5.25;;;;;;;8.31;nan;99001.25;4928637;28;20055;-82
2023/03/08 11:57:07;;;;;;;13.70;5.20;;;;;;;7.83;nan;99000.91;4950408;28;20055;-81